Latest Weather Observations for Scottsdale

IDT60801

Issued at 12:32 pm EDT Friday 9 December 2016 (issued every 30 minutes, with the page automatically refreshed every 10 minutes)

About weather observations | Map of weather stations | Latest weather observations for TAS | Other Formats
Station Details ID: 091219 Name: SCOTTSDALE (WEST MINSTONE ROAD) Lat: -41.17 Lon: 147.49 Height: 197.5 m
Data from the previous 72 hours. | See also: Recent months at Scottsdale
Date/Time
EDT
Temp
°C
App
Temp
°C
Dew
Point
°C
Rel
Hum
%
Delta-T
°C
Wind Press
QNH
hPa
Press
MSL
hPa
Rain since
9am
mm
Dir  Spd
km/h
Gust
km/h
Spd
kts
Gust
kts
09/12:30pm 14.8 8.6 -0.6 35 6.5 SW 22 37 12 20 1008.0 - 0.0
09/12:00pm 13.9 9.3 -0.7 36 6.1 WSW 13 24 7 13 1007.7 1007.4 0.0
09/11:30am 14.2 9.0 0.1 38 6.0 WSW 17 33 9 18 1007.2 - 0.0
09/11:00am 13.4 6.3 -1.2 36 6.0 SW 26 41 14 22 1007.0 - 0.0
09/10:30am 13.1 5.4 -0.3 39 5.6 SW 30 52 16 28 1006.8 - 0.0
09/10:21am 12.5 4.8 -2.7 34 6.0 SW 28 50 15 27 1006.5 - 0.0
09/10:00am 12.4 6.7 -0.7 40 5.4 WSW 19 32 10 17 1006.4 - 0.0
09/09:31am 11.2 3.6 -2.0 39 5.2 WSW 28 46 15 25 1005.8 - 0.0
09/09:30am 10.9 3.7 -1.7 41 5.0 WSW 26 46 14 25 1005.9 - 0.0
09/09:00am 12.1 6.5 0.2 44 5.0 SW 19 32 10 17 1005.5 1005.3 35.6
09/08:30am 11.0 5.1 -0.5 45 4.7 WSW 20 33 11 18 1004.8 - 35.6
09/08:00am 10.3 4.7 -0.2 48 4.3 SW 19 32 10 17 1004.4 - 35.6
09/07:30am 9.8 5.3 0.0 50 4.0 WSW 13 26 7 14 1003.7 - 35.6
09/07:00am 8.9 3.8 0.9 57 3.3 SW 17 24 9 13 1002.9 - 35.6
09/06:30am 8.7 3.9 0.4 56 3.4 WSW 15 24 8 13 1001.8 - 35.6
09/06:00am 7.4 4.4 2.2 69 2.2 W 7 13 4 7 1001.2 1001.0 35.6
09/05:30am 7.0 3.0 3.0 76 1.7 W 13 22 7 12 1000.3 - 35.6
09/05:00am 7.7 3.4 3.1 72 2.0 W 15 24 8 13 999.6 - 35.6
09/04:30am 7.8 3.5 3.4 74 1.9 W 15 22 8 12 998.8 - 35.6
09/04:00am 8.1 5.0 3.5 73 2.0 WNW 9 15 5 8 998.3 - 35.6
09/03:30am 8.5 4.7 3.7 72 2.1 WNW 13 20 7 11 997.6 - 35.6
09/03:00am 8.8 5.1 4.3 73 2.0 W 13 28 7 15 997.0 996.7 35.6
09/02:30am 10.4 6.4 2.9 59 3.3 WSW 13 24 7 13 996.5 - 35.6
09/02:00am 9.5 6.3 4.9 73 2.1 WNW 11 17 6 9 995.9 - 35.6
09/01:30am 10.2 5.8 4.8 69 2.5 WNW 17 24 9 13 995.4 - 35.6
09/01:00am 10.3 6.3 5.1 70 2.4 WNW 15 22 8 12 994.9 - 35.6
09/12:30am 10.9 5.7 5.3 68 2.6 WNW 22 37 12 20 994.2 - 35.6
09/12:00am 10.9 6.1 5.8 71 2.4 W 20 39 11 21 993.1 992.8 35.6
 
Date/Time
EDT
Temp
°C
App
Temp
°C
Dew
Point
°C
Rel
Hum
%
Delta-T
°C
Wind Press
QNH
hPa
Press
MSL
hPa
Rain since
9am
mm
Dir  Spd
km/h
Gust
km/h
Spd
kts
Gust
kts
08/11:42pm 11.1 4.9 6.3 72 2.3 W 28 50 15 27 992.8 - 35.6
08/11:30pm 10.8 5.9 6.9 77 1.9 W 22 43 12 23 992.8 - 35.6
08/11:03pm 10.9 5.0 7.4 79 1.7 W 28 46 15 25 992.2 - 35.6
08/11:00pm 10.9 5.0 7.7 80 1.6 W 28 41 15 22 992.2 - 35.6
08/10:30pm 11.0 4.8 7.8 80 1.6 WNW 30 43 16 23 991.4 - 35.6
08/10:00pm 11.2 5.8 7.8 79 1.7 WNW 26 43 14 23 992.1 - 35.6
08/09:46pm 11.3 5.5 7.9 79 1.7 WNW 28 48 15 26 991.6 - 35.6
08/09:30pm 11.5 6.1 8.1 79 1.7 WNW 26 39 14 21 991.8 - 35.6
08/09:00pm 11.6 6.3 8.6 82 1.5 WNW 26 43 14 23 991.2 990.9 35.6
08/08:30pm 11.9 6.7 8.8 81 1.6 W 26 37 14 20 991.4 - 35.6
08/08:05pm 12.2 6.5 8.4 77 1.9 WNW 28 50 15 27 990.7 - 35.6
08/08:00pm 12.2 7.0 8.7 79 1.8 WNW 26 50 14 27 990.7 - 35.6
08/07:30pm 12.4 6.5 9.1 80 1.7 WNW 30 57 16 31 990.0 - 35.6
08/07:11pm 12.5 7.0 9.2 80 1.7 NW 28 52 15 28 989.7 - 35.6
08/07:00pm 12.4 7.8 9.7 83 1.4 WNW 24 39 13 21 990.0 - 35.6
08/06:30pm 12.6 6.0 9.9 83 1.4 NW 35 57 19 31 989.8 - 35.6
08/06:00pm 13.4 8.2 10.4 82 1.6 NW 28 56 15 30 989.7 989.4 35.6
08/05:30pm 13.3 6.8 10.5 83 1.5 NW 35 57 19 31 989.6 - 35.6
08/05:06pm 13.4 7.4 10.0 80 1.8 NNW 32 50 17 27 990.0 - 35.6
08/05:00pm 13.4 7.8 10.2 81 1.7 NW 30 46 16 25 990.2 - 35.6
08/04:36pm 13.3 8.1 10.1 81 1.7 NNW 28 46 15 25 990.6 - 35.6
08/04:30pm 13.4 7.2 10.0 80 1.8 NNW 33 48 18 26 990.7 - 35.6
08/04:00pm 13.1 7.9 10.3 83 1.5 NW 28 50 15 27 991.2 - 35.6
08/03:34pm 14.1 8.5 10.1 77 2.1 NW 30 48 16 26 991.7 - 35.6
08/03:30pm 14.4 9.3 10.7 78 2.0 NW 28 43 15 23 991.8 - 35.6
08/03:00pm 13.8 9.7 11.6 86 1.2 NW 24 41 13 22 992.0 991.7 35.6
08/02:55pm 13.7 8.8 11.3 85 1.3 NW 28 50 15 27 992.1 - 35.6
08/02:30pm 12.9 8.8 12.7 99 0.1 NW 26 44 14 24 992.4 - 35.6
08/02:00pm 12.7 7.8 12.7 100 0.0 NW 30 54 16 29 992.3 - 35.4
08/01:47pm 13.4 8.8 13.4 100 0.0 NW 30 56 16 30 992.1 - 34.8
08/01:36pm 13.5 7.2 13.5 100 0.0 N 39 69 21 37 991.9 - 34.2
08/01:30pm 13.9 8.9 13.9 100 0.0 N 33 46 18 25 991.7 - 33.6
08/01:00pm 13.6 8.6 13.4 99 0.1 N 32 43 17 23 992.6 - 32.0
08/12:30pm 13.7 8.8 13.7 100 0.0 N 32 43 17 23 992.8 - 28.8
08/12:00pm 13.5 8.9 13.5 100 0.0 NNE 30 41 16 22 992.9 992.5 26.0
08/11:30am 13.6 9.8 13.6 100 0.0 NE 26 35 14 19 993.4 - 21.2
08/11:00am 13.7 10.2 13.5 99 0.1 NE 24 32 13 17 994.1 - 15.8
08/10:30am 13.6 9.4 13.6 100 0.0 NE 28 37 15 20 995.1 - 12.6
08/10:00am 14.1 10.7 13.7 97 0.2 NE 24 39 13 21 997.0 - 8.0
08/09:30am 14.2 10.1 13.8 97 0.2 NNE 28 37 15 20 998.1 - 4.4
08/09:00am 14.1 10.7 13.6 97 0.3 NE 24 37 13 20 998.9 998.6 8.6
08/08:30am 14.0 11.2 13.3 96 0.4 NE 20 30 11 16 999.9 - 5.8
08/08:00am 12.3 10.0 11.6 95 0.4 ESE 15 20 8 11 1000.2 - 4.4
08/07:30am 11.3 8.6 10.3 94 0.5 ESE 15 20 8 11 1000.9 - 3.0
08/07:00am 11.3 8.3 9.3 87 1.0 SSE 15 17 8 9 1001.1 - 1.0
08/06:30am 11.4 9.4 8.6 83 1.4 SE 9 11 5 6 1001.8 - 0.0
08/06:00am 11.8 9.1 7.5 75 2.1 SE 11 15 6 8 1001.3 1001.1 0.0
08/05:30am 11.0 7.7 8.0 82 1.5 SE 15 19 8 10 1001.4 - 0.0
08/05:00am 10.8 8.0 8.4 85 1.2 SSE 13 15 7 8 1002.7 - 0.0
08/04:30am 10.5 7.7 8.5 87 1.0 SSE 13 17 7 9 1003.0 - 0.0
08/04:00am 10.0 7.3 8.8 92 0.6 SSE 13 17 7 9 1003.4 - 0.0
08/03:30am 10.0 7.0 9.2 95 0.4 SE 15 17 8 9 1004.1 - 0.0
08/03:00am 9.9 7.0 9.5 97 0.2 SE 15 17 8 9 1005.1 1004.9 0.0
08/02:30am 10.2 8.1 9.8 97 0.2 SE 11 15 6 8 1005.6 - 0.0
08/02:00am 10.5 8.5 10.1 97 0.2 ESE 11 13 6 7 1006.4 - 0.0
08/01:30am 10.9 9.4 10.5 97 0.2 E 9 13 5 7 1007.2 - 0.0
08/01:00am 11.1 9.6 10.7 97 0.2 E 9 11 5 6 1007.8 - 0.0
08/12:30am 10.5 9.1 9.5 93 0.5 NE 7 11 4 6 1008.3 - 0.0
08/12:00am 8.1 5.9 7.7 97 0.2 ENE 9 9 5 5 1008.5 1008.2 0.0
 
Date/Time
EDT
Temp
°C
App
Temp
°C
Dew
Point
°C
Rel
Hum
%
Delta-T
°C
Wind Press
QNH
hPa
Press
MSL
hPa
Rain since
9am
mm
Dir  Spd
km/h
Gust
km/h
Spd
kts
Gust
kts
07/11:30pm 9.5 7.2 9.1 97 0.2 SE 11 13 6 7 1008.6 - 0.0
07/11:00pm 10.0 8.8 9.6 97 0.2 NNE 6 7 3 4 1009.1 - 0.0
07/10:30pm 9.2 7.5 8.2 93 0.5 N 7 7 4 4 1009.1 - 0.0
07/10:00pm 9.3 7.8 8.5 95 0.4 N 6 7 3 4 1009.4 - 0.0
07/09:30pm 9.9 8.5 8.9 93 0.5 N 6 7 3 4 1009.8 - 0.0
07/09:00pm 11.7 10.4 9.8 88 1.0 N 7 9 4 5 1009.9 1009.7 0.0
07/08:30pm 13.2 11.4 9.5 78 1.9 WNW 9 13 5 7 1010.2 - 0.0
07/08:00pm 14.6 12.8 9.6 72 2.6 WNW 9 15 5 8 1010.2 - 0.0
07/07:30pm 15.6 13.8 9.5 67 3.2 WNW 9 15 5 8 1010.4 - 0.0
07/07:00pm 16.3 14.1 9.4 63 3.6 WNW 11 17 6 9 1010.6 - 0.0
07/06:30pm 15.8 13.8 10.2 69 3.0 WNW 11 17 6 9 1010.8 - 0.0
07/06:00pm 15.5 12.8 10.4 71 2.7 NW 15 26 8 14 1011.2 1011.0 0.0
07/05:30pm 15.8 12.8 10.6 71 2.8 NW 17 28 9 15 1011.2 - 0.0
07/05:00pm 16.5 13.7 10.1 66 3.4 WNW 15 24 8 13 1011.3 - 0.0
07/04:30pm 15.4 12.5 9.7 69 3.0 WNW 15 24 8 13 1011.5 - 0.0
07/04:00pm 15.1 11.5 10.0 71 2.7 WNW 19 28 10 15 1011.8 - 0.0
07/03:30pm 15.2 11.6 9.9 70 2.8 NW 19 28 10 15 1011.9 - 0.0
07/03:00pm 15.1 11.4 9.5 69 2.9 NW 19 30 10 16 1011.9 1011.8 0.0
07/02:30pm 15.3 11.6 10.0 70 2.8 NNW 20 32 11 17 1012.0 - 0.0
07/02:00pm 15.9 11.9 10.5 70 2.9 NW 22 33 12 18 1012.1 - 0.0
07/01:30pm 15.7 11.1 9.6 67 3.2 NW 24 37 13 20 1012.2 - 0.0
07/01:00pm 15.9 12.1 9.8 67 3.2 NW 20 30 11 16 1012.3 - 0.0
07/12:30pm 17.1 13.6 8.9 58 4.3 NW 17 28 9 15 1012.4 - 0.0
07/12:00pm 17.3 14.0 8.2 55 4.7 W 15 26 8 14 1012.7 1012.4 0.0
07/11:30am 16.6 13.7 8.0 57 4.4 W 13 22 7 12 1012.8 - 0.0
07/11:00am 17.3 14.0 8.2 55 4.7 W 15 24 8 13 1012.8 - 0.0
07/10:30am 16.9 13.1 7.4 53 4.8 W 17 30 9 16 1012.9 - 0.0
07/10:00am 16.8 13.5 8.0 56 4.5 WNW 15 24 8 13 1013.1 - 0.0
07/09:30am 15.2 11.2 6.7 57 4.2 WNW 17 24 9 13 1013.4 - 0.0
07/09:00am 14.8 11.3 7.4 61 3.7 W 15 24 8 13 1013.5 1013.3 0.0
07/08:30am 13.7 10.2 7.4 65 3.1 WNW 15 22 8 12 1013.4 - 0.0
07/08:00am 12.8 10.6 7.8 71 2.5 NW 9 13 5 7 1013.2 - 0.0
07/07:30am 11.8 10.9 7.7 76 2.0 W 2 6 1 3 1012.8 - 0.0
07/07:00am 10.9 10.3 7.6 80 1.6 CALM 0 0 0 0 1012.5 - 0.0
07/06:30am 9.1 7.5 6.5 84 1.2 WSW 4 7 2 4 1012.4 - 0.0
07/06:00am 7.3 5.9 5.3 87 0.9 N 2 6 1 3 1012.3 1012.1 0.0
07/05:30am 6.8 4.4 5.2 89 0.7 ESE 7 9 4 5 1012.0 - 0.0
07/05:00am 7.8 5.1 5.4 85 1.1 NW 9 11 5 6 1011.6 - 0.0
07/04:30am 8.5 5.8 5.4 81 1.4 WNW 9 11 5 6 1011.5 - 0.0
07/04:00am 8.6 5.9 5.5 81 1.4 NNW 9 11 5 6 1011.3 - 0.0
07/03:30am 9.6 6.9 5.5 75 1.9 W 9 13 5 7 1011.4 - 0.0
07/03:00am 9.8 6.2 5.0 72 2.2 W 13 19 7 10 1011.7 1011.5 0.0
07/02:30am 9.6 6.3 4.7 71 2.2 WNW 11 17 6 9 1011.7 - 0.0
07/02:00am 9.3 6.9 4.4 71 2.2 WNW 6 9 3 5 1011.7 - 0.0
07/01:30am 9.1 6.8 4.7 74 2.0 NNW 6 11 3 6 1011.8 - 0.0
07/01:00am 9.8 6.4 4.2 68 2.5 NW 11 13 6 7 1012.0 - 0.0
07/12:30am 10.1 6.4 4.3 67 2.6 WNW 13 17 7 9 1011.8 - 0.0
07/12:00am 10.5 7.5 4.3 65 2.8 NW 9 11 5 6 1011.9 1011.7 0.0
 
Date/Time
EDT
Temp
°C
App
Temp
°C
Dew
Point
°C
Rel
Hum
%
Delta-T
°C
Wind Press
QNH
hPa
Press
MSL
hPa
Rain since
9am
mm
Dir  Spd
km/h
Gust
km/h
Spd
kts
Gust
kts
06/11:30pm 9.6 7.1 5.0 73 2.1 N 7 9 4 5 1011.8 - 0.0
06/11:00pm 11.3 8.7 4.0 61 3.3 N 7 13 4 7 1011.6 - 0.0
06/10:30pm 13.1 9.1 2.8 49 4.6 SW 13 20 7 11 1011.3 - 0.0
06/10:00pm 12.7 10.7 4.5 57 3.8 SSW 4 9 2 5 1011.2 - 0.0
06/09:30pm 13.2 9.9 4.3 55 4.1 W 11 17 6 9 1010.9 - 0.0
06/09:00pm 14.4 10.5 3.5 48 5.0 WNW 13 20 7 11 1010.5 1010.2 0.0
06/08:30pm 14.6 11.7 6.4 58 4.0 NW 11 15 6 8 1009.9 - 0.0
06/08:00pm 14.4 12.5 9.0 70 2.8 N 9 11 5 6 1009.4 - 0.0
06/07:30pm 16.7 13.6 7.2 53 4.8 NW 13 20 7 11 1009.0 - 0.0
06/07:00pm 16.8 12.8 6.8 51 5.0 NW 17 28 9 15 1008.7 - 0.0
06/06:30pm 17.4 12.8 6.6 49 5.4 WNW 20 30 11 16 1008.1 - 0.0
06/06:00pm 17.6 12.1 5.9 46 5.8 WNW 24 37 13 20 1007.9 1007.6 0.0
06/05:30pm 18.2 13.0 5.7 44 6.2 WNW 22 35 12 19 1007.6 - 0.0
06/05:00pm 18.8 13.8 6.3 44 6.3 WNW 22 37 12 20 1007.5 - 0.0
06/04:30pm 19.1 13.5 5.6 41 6.7 WNW 24 39 13 21 1007.2 - 0.0
06/04:00pm 19.0 13.9 7.6 47 5.9 NW 24 43 13 23 1007.3 - 0.0
06/03:30pm 18.5 13.8 7.6 49 5.6 WNW 22 37 12 20 1007.5 - 0.0
06/03:00pm 19.3 14.9 7.2 45 6.2 WNW 20 32 11 17 1007.6 1007.3 0.0
06/02:30pm 18.9 14.4 6.1 43 6.4 WNW 19 30 10 16 1007.5 - 0.0
06/02:00pm 18.9 15.4 8.9 52 5.3 NW 17 30 9 16 1007.6 - 0.0
06/01:30pm 18.1 14.2 8.5 53 5.0 NW 19 24 10 13 1007.8 - 0.0
06/01:00pm 17.0 14.2 8.5 57 4.4 NW 13 19 7 10 1008.3 - 0.0

Other Formats:

Comma delimited format used in spreadsheet applications
http://www.bom.gov.au/fwo/IDT60801/IDT60801.94972.axf

JavaScript Object Notation format (JSON) in row-major order
http://www.bom.gov.au/fwo/IDT60801/IDT60801.94972.json